Time;durP1;ratioP1;P1;durP2;ratioP2;P2;SDS_P1;SDS_P2;PMS_P1;PMS_P2;Temp;Humidity;BMP_temperature;BMP_pressure;BME280_temperature;BME280_humidity;BME280_pressure;Samples;Min_cycle;Max_cycle;Signal;HPM_P1;HPM_P2
2021/08/28 00:01:45;;;;;;;7.00;4.63;;;14.20;34.70;;;;;;5098964;28;20055;-69
2021/08/28 00:04:13;;;;;;;5.97;3.97;;;14.20;34.60;;;;;;5086935;28;20042;-70
2021/08/28 00:06:42;;;;;;;4.45;3.50;;;14.20;34.20;;;;;;5095705;28;20048;-69
2021/08/28 00:09:10;;;;;;;6.43;3.53;;;14.10;34.80;;;;;;5097100;28;20043;-69
2021/08/28 00:11:39;;;;;;;6.82;3.22;;;14.10;34.90;;;;;;5100398;28;20048;-69
2021/08/28 00:14:07;;;;;;;9.25;3.90;;;14.10;36.00;;;;;;5098576;28;20043;-69
2021/08/28 00:16:35;;;;;;;5.95;3.55;;;14.10;37.10;;;;;;5101149;28;20101;-70
2021/08/28 00:19:03;;;;;;;5.25;3.55;;;14.00;37.60;;;;;;5098832;28;20035;-70
2021/08/28 00:21:34;;;;;;;4.43;2.83;;;14.00;38.50;;;;;;5096139;28;20043;-69
2021/08/28 00:24:04;;;;;;;6.20;3.72;;;13.90;38.50;;;;;;5094591;28;20043;-69
2021/08/28 00:26:32;;;;;;;6.57;2.92;;;14.00;39.30;;;;;;5097521;28;20457;-69
2021/08/28 00:29:00;;;;;;;5.53;2.97;;;14.00;39.30;;;;;;5089491;28;20048;-69
2021/08/28 00:31:28;;;;;;;5.88;2.90;;;14.00;39.50;;;;;;5084030;28;20135;-69
2021/08/28 00:33:56;;;;;;;5.63;2.85;;;13.90;38.60;;;;;;5085735;28;20048;-70
2021/08/28 00:36:24;;;;;;;4.30;2.78;;;13.90;39.30;;;;;;5083326;28;20097;-69
2021/08/28 00:38:52;;;;;;;4.80;2.60;;;14.00;39.10;;;;;;5077196;28;20133;-69
2021/08/28 00:41:21;;;;;;;3.88;2.70;;;13.90;39.50;;;;;;5083057;28;20056;-69
2021/08/28 00:43:49;;;;;;;5.93;2.75;;;13.90;39.60;;;;;;5082111;28;20044;-69
2021/08/28 00:46:17;;;;;;;5.28;3.15;;;13.90;38.90;;;;;;5073452;28;20043;-69
2021/08/28 00:48:45;;;;;;;6.00;2.83;;;13.90;40.30;;;;;;5076938;28;20411;-69
2021/08/28 00:51:14;;;;;;;5.05;2.70;;;14.00;39.60;;;;;;5076433;28;20044;-69
2021/08/28 00:53:42;;;;;;;4.25;2.53;;;14.00;40.40;;;;;;5077634;28;20068;-69
2021/08/28 00:56:10;;;;;;;3.85;2.90;;;14.00;40.20;;;;;;5078846;28;20102;-69
2021/08/28 00:58:40;;;;;;;3.08;2.78;;;14.00;39.60;;;;;;5073104;28;20516;-70
2021/08/28 01:01:13;;;;;;;3.88;2.78;;;13.90;39.80;;;;;;5082096;28;20093;-69
2021/08/28 01:03:45;;;;;;;4.10;2.60;;;13.80;40.50;;;;;;5083802;28;20399;-69
2021/08/28 01:06:19;;;;;;;6.03;3.20;;;13.90;41.20;;;;;;5094765;27;20047;-69
2021/08/28 01:08:54;;;;;;;3.65;2.83;;;13.80;41.40;;;;;;5096181;28;20055;-69
2021/08/28 01:11:26;;;;;;;6.55;3.20;;;13.80;41.30;;;;;;5102802;27;20128;-69
2021/08/28 01:13:58;;;;;;;5.07;3.08;;;13.90;40.60;;;;;;5102349;27;20075;-69
2021/08/28 01:16:43;;;;;;;3.67;3.08;;;13.80;40.40;;;;;;5105423;28;20103;-70
2021/08/28 01:19:19;;;;;;;7.43;3.20;;;13.90;40.50;;;;;;5097334;28;20039;-69
2021/08/28 01:21:47;;;;;;;3.90;3.10;;;13.90;39.60;;;;;;5101693;27;20117;-70
2021/08/28 01:24:16;;;;;;;5.30;3.15;;;13.90;40.40;;;;;;5105346;28;20048;-70
2021/08/28 01:26:54;;;;;;;3.63;2.97;;;14.00;39.40;;;;;;5104611;27;20047;-70
2021/08/28 01:29:28;;;;;;;5.35;3.33;;;14.00;39.10;;;;;;5096046;28;20454;-70
2021/08/28 01:31:58;;;;;;;4.07;3.67;;;14.00;37.60;;;;;;5085187;28;20093;-70
2021/08/28 01:34:27;;;;;;;6.03;4.15;;;13.90;38.10;;;;;;5098438;28;20122;-69
2021/08/28 01:36:56;;;;;;;5.20;3.95;;;13.90;38.00;;;;;;5102505;28;20105;-69
2021/08/28 01:39:25;;;;;;;6.00;3.88;;;13.90;37.30;;;;;;5100923;28;20124;-70
2021/08/28 01:42:02;;;;;;;3.92;3.47;;;13.90;36.80;;;;;;5099205;28;20855;-69
2021/08/28 01:44:32;;;;;;;5.22;3.40;;;13.90;37.30;;;;;;5104452;28;20052;-70
2021/08/28 01:47:00;;;;;;;5.57;3.50;;;13.80;37.60;;;;;;5104914;28;20040;-69
2021/08/28 01:49:30;;;;;;;4.82;3.35;;;13.90;38.20;;;;;;5075935;28;20685;-70
2021/08/28 01:51:58;;;;;;;4.28;3.30;;;13.90;37.80;;;;;;5081153;28;20131;-70
2021/08/28 01:54:26;;;;;;;7.18;3.92;;;13.90;37.60;;;;;;5084963;28;20051;-70
2021/08/28 01:56:54;;;;;;;5.25;4.30;;;13.80;38.60;;;;;;5081683;28;20075;-70
2021/08/28 01:59:22;;;;;;;5.97;4.15;;;13.80;40.20;;;;;;5079575;28;20067;-70
2021/08/28 02:01:52;;;;;;;7.38;4.60;;;13.80;40.30;;;;;;5083563;28;20044;-70
2021/08/28 02:04:21;;;;;;;6.72;4.55;;;13.70;40.30;;;;;;5067751;28;20043;-70
2021/08/28 02:06:58;;;;;;;7.30;4.88;;;13.70;40.80;;;;;;5083623;28;20043;-70
2021/08/28 02:09:32;;;;;;;7.30;4.85;;;13.70;40.30;;;;;;5076351;28;20051;-70
2021/08/28 02:12:04;;;;;;;7.28;5.38;;;13.70;40.90;;;;;;5063280;28;20110;-70
2021/08/28 02:14:39;;;;;;;6.80;4.72;;;13.70;40.50;;;;;;5078578;28;20116;-70
2021/08/28 02:17:10;;;;;;;7.40;5.40;;;13.70;41.20;;;;;;5076954;28;20190;-70
2021/08/28 02:19:45;;;;;;;8.65;5.50;;;13.70;41.50;;;;;;5071528;28;20186;-71
2021/08/28 02:22:17;;;;;;;7.60;5.43;;;13.60;41.50;;;;;;5081116;28;20578;-70
2021/08/28 02:24:49;;;;;;;9.65;5.90;;;13.60;42.70;;;;;;5078805;28;20399;-70
2021/08/28 02:27:26;;;;;;;9.75;5.75;;;13.60;42.50;;;;;;5079540;28;20044;-70
2021/08/28 02:29:56;;;;;;;11.77;5.82;;;13.60;42.70;;;;;;5076310;28;20110;-70
2021/08/28 02:32:27;;;;;;;6.25;5.35;;;13.60;43.00;;;;;;5083176;28;20577;-70
2021/08/28 02:34:57;;;;;;;10.38;5.30;;;13.60;43.30;;;;;;5078592;28;20666;-70
2021/08/28 02:37:27;;;;;;;7.78;6.00;;;13.70;43.70;;;;;;5085972;28;20552;-70
2021/08/28 02:39:55;;;;;;;9.35;6.22;;;13.60;42.80;;;;;;5075789;28;20052;-70
2021/08/28 02:42:23;;;;;;;8.60;6.50;;;13.60;43.20;;;;;;5083551;28;20593;-70
2021/08/28 02:44:54;;;;;;;8.43;5.55;;;13.70;43.00;;;;;;5082773;28;20087;-70
2021/08/28 02:47:24;;;;;;;9.63;6.40;;;13.60;43.40;;;;;;5079265;28;20044;-70
2021/08/28 02:49:56;;;;;;;9.90;6.70;;;13.50;44.30;;;;;;5077533;28;20079;-70
2021/08/28 02:52:26;;;;;;;11.60;7.20;;;13.60;43.40;;;;;;5079734;28;20044;-70
2021/08/28 02:54:59;;;;;;;10.85;7.80;;;13.60;43.90;;;;;;5063334;28;20056;-70
2021/08/28 02:57:28;;;;;;;13.82;7.68;;;13.50;44.40;;;;;;5058003;28;20053;-70
2021/08/28 02:59:57;;;;;;;9.90;7.88;;;13.60;44.90;;;;;;5057049;28;20041;-70
2021/08/28 03:02:26;;;;;;;13.27;8.68;;;13.50;44.40;;;;;;5059688;28;20508;-70
2021/08/28 03:04:57;;;;;;;12.68;8.57;;;13.60;45.00;;;;;;5061848;28;20051;-70
2021/08/28 03:07:25;;;;;;;13.30;8.35;;;13.50;44.50;;;;;;5060584;28;20094;-70
2021/08/28 03:09:58;;;;;;;11.63;8.88;;;13.50;45.30;;;;;;5051988;28;20575;-70
2021/08/28 03:12:26;;;;;;;13.57;8.68;;;13.50;45.20;;;;;;5056307;28;20110;-70
2021/08/28 03:14:54;;;;;;;14.15;9.10;;;13.50;46.40;;;;;;5059164;28;20041;-70
2021/08/28 03:17:24;;;;;;;12.50;9.40;;;13.50;45.20;;;;;;5057424;28;20064;-70
2021/08/28 03:19:53;;;;;;;12.95;10.25;;;13.50;45.00;;;;;;5059978;28;20522;-70
2021/08/28 03:22:23;;;;;;;12.80;9.13;;;13.50;45.30;;;;;;5057472;28;20056;-70
2021/08/28 03:24:53;;;;;;;11.93;9.75;;;13.50;45.80;;;;;;5062768;28;20049;-70
2021/08/28 03:27:22;;;;;;;14.55;10.35;;;13.50;45.90;;;;;;5059775;28;20065;-70
2021/08/28 03:29:52;;;;;;;15.05;10.52;;;13.60;45.50;;;;;;5055298;28;20113;-70
2021/08/28 03:32:21;;;;;;;14.73;10.80;;;13.60;45.20;;;;;;5055895;28;20045;-70
2021/08/28 03:34:49;;;;;;;15.88;10.35;;;13.60;45.20;;;;;;5058855;28;20056;-70
2021/08/28 03:37:19;;;;;;;15.55;10.85;;;13.50;45.80;;;;;;5078627;28;20044;-70
2021/08/28 03:39:48;;;;;;;14.32;10.70;;;13.50;46.50;;;;;;5073274;28;20047;-70
2021/08/28 03:42:17;;;;;;;15.27;11.15;;;13.40;47.10;;;;;;5075889;28;20044;-70
2021/08/28 03:44:45;;;;;;;15.70;10.55;;;13.40;47.20;;;;;;5077472;28;20056;-70
2021/08/28 03:47:15;;;;;;;15.63;10.75;;;13.40;47.60;;;;;;5078613;28;20488;-70
2021/08/28 03:49:43;;;;;;;16.70;11.15;;;13.40;48.40;;;;;;5069979;28;20300;-70
2021/08/28 03:52:11;;;;;;;14.43;10.30;;;13.40;47.90;;;;;;5079102;28;20101;-70
2021/08/28 03:54:39;;;;;;;15.93;10.95;;;13.50;48.40;;;;;;5082297;28;20036;-70
2021/08/28 03:57:09;;;;;;;15.88;11.23;;;13.40;48.10;;;;;;5082541;28;20052;-70
2021/08/28 03:59:36;;;;;;;16.15;11.73;;;13.40;48.40;;;;;;5056305;28;20075;-70
2021/08/28 04:02:04;;;;;;;14.50;11.30;;;13.40;48.50;;;;;;5078008;28;20514;-70
2021/08/28 04:04:41;;;;;;;17.63;11.32;;;13.40;48.60;;;;;;5078235;28;20132;-70
2021/08/28 04:07:09;;;;;;;15.63;12.02;;;13.40;49.30;;;;;;5078746;28;20060;-70
2021/08/28 04:09:37;;;;;;;18.23;12.10;;;13.40;49.50;;;;;;5075463;28;20067;-70
2021/08/28 04:12:06;;;;;;;16.20;12.07;;;13.40;49.70;;;;;;5078784;28;20048;-70
2021/08/28 04:14:35;;;;;;;17.52;11.60;;;13.40;49.40;;;;;;5078895;28;20090;-71
2021/08/28 04:17:04;;;;;;;18.52;12.40;;;13.40;50.10;;;;;;5078094;28;20052;-71
2021/08/28 04:19:32;;;;;;;15.95;11.77;;;13.50;50.30;;;;;;5075521;28;20056;-70
2021/08/28 04:22:00;;;;;;;17.92;13.02;;;13.40;50.40;;;;;;5078169;28;20033;-70
2021/08/28 04:24:28;;;;;;;18.83;13.00;;;13.30;51.30;;;;;;5081087;28;20045;-70
2021/08/28 04:26:56;;;;;;;18.90;13.48;;;13.40;52.50;;;;;;5083328;28;20048;-70
2021/08/28 04:29:24;;;;;;;17.95;13.15;;;13.40;52.70;;;;;;5077918;28;20040;-70
2021/08/28 04:31:53;;;;;;;21.92;14.13;;;13.40;52.90;;;;;;5075850;28;20056;-70
2021/08/28 04:34:21;;;;;;;20.27;13.63;;;13.20;54.20;;;;;;5079075;28;20066;-70
2021/08/28 04:36:49;;;;;;;20.55;13.65;;;13.20;54.90;;;;;;5082675;28;20051;-70
2021/08/28 04:39:18;;;;;;;19.38;13.48;;;13.20;55.40;;;;;;5082252;28;20419;-70
2021/08/28 04:41:46;;;;;;;17.42;13.90;;;13.30;56.10;;;;;;5062904;28;20047;-70
2021/08/28 04:44:14;;;;;;;18.75;13.88;;;13.30;55.90;;;;;;5082276;28;20566;-71
2021/08/28 04:46:42;;;;;;;18.98;14.05;;;13.30;55.90;;;;;;5081195;28;20039;-70
2021/08/28 04:49:12;;;;;;;21.98;15.07;;;13.30;56.10;;;;;;5079506;28;20507;-70
2021/08/28 04:51:40;;;;;;;18.25;13.68;;;13.30;56.00;;;;;;5081668;28;20048;-70
2021/08/28 04:54:08;;;;;;;22.27;14.45;;;13.20;56.00;;;;;;5082029;28;20093;-70
2021/08/28 04:56:36;;;;;;;19.17;14.85;;;13.20;56.30;;;;;;5085540;28;20105;-70
2021/08/28 04:59:04;;;;;;;17.83;13.98;;;13.30;55.70;;;;;;5082228;28;20056;-70
2021/08/28 05:01:32;;;;;;;21.05;14.30;;;13.20;55.80;;;;;;5079961;28;20549;-70
2021/08/28 05:04:01;;;;;;;23.13;14.70;;;13.30;56.00;;;;;;5083397;28;20044;-70
2021/08/28 05:06:35;;;;;;;22.30;15.30;;;13.30;56.10;;;;;;5083241;28;20040;-70
2021/08/28 05:09:03;;;;;;;20.75;15.50;;;13.30;56.30;;;;;;5081899;28;20056;-70
2021/08/28 05:11:31;;;;;;;21.13;15.95;;;13.40;56.50;;;;;;5075060;28;20044;-70
2021/08/28 05:13:59;;;;;;;22.30;15.18;;;13.40;55.80;;;;;;5085039;28;20044;-69
2021/08/28 05:16:27;;;;;;;21.20;15.27;;;13.50;55.90;;;;;;5083771;28;20047;-70
2021/08/28 05:18:55;;;;;;;23.48;16.30;;;13.50;55.60;;;;;;5070884;28;20039;-69
2021/08/28 05:21:23;;;;;;;21.55;16.13;;;13.50;55.00;;;;;;5080922;28;20082;-70
2021/08/28 05:23:53;;;;;;;24.60;16.70;;;13.30;55.00;;;;;;5066134;28;20468;-69
2021/08/28 05:26:21;;;;;;;24.85;16.52;;;13.40;55.30;;;;;;5083335;28;20483;-70
2021/08/28 05:28:49;;;;;;;26.42;17.95;;;13.40;55.10;;;;;;5076894;28;20113;-70
2021/08/28 05:31:17;;;;;;;22.58;16.33;;;13.40;55.20;;;;;;5078118;28;20048;-70
2021/08/28 05:33:45;;;;;;;21.35;16.75;;;13.50;55.30;;;;;;5081720;28;20048;-69
2021/08/28 05:36:13;;;;;;;23.58;17.05;;;13.50;54.10;;;;;;5081917;28;20078;-69
2021/08/28 05:38:41;;;;;;;26.05;17.38;;;13.40;53.50;;;;;;5078056;28;20067;-70
2021/08/28 05:41:10;;;;;;;24.02;16.50;;;13.40;54.10;;;;;;5078751;28;20556;-69
2021/08/28 05:43:38;;;;;;;22.80;16.50;;;13.50;54.90;;;;;;5082077;28;20523;-69
2021/08/28 05:46:06;;;;;;;24.10;16.13;;;13.60;55.20;;;;;;5078624;28;20164;-69
2021/08/28 05:48:35;;;;;;;23.83;16.48;;;13.50;52.90;;;;;;5080504;28;20618;-70
2021/08/28 05:51:03;;;;;;;24.50;16.80;;;13.60;55.40;;;;;;5075340;28;20044;-70
2021/08/28 05:53:31;;;;;;;20.52;16.23;;;13.60;54.50;;;;;;5083802;28;20048;-70
2021/08/28 05:55:59;;;;;;;20.35;16.15;;;13.60;53.60;;;;;;5080838;28;20055;-70
2021/08/28 05:58:28;;;;;;;22.33;16.38;;;13.60;53.70;;;;;;5064706;28;20097;-70
2021/08/28 06:00:56;;;;;;;27.73;17.30;;;13.60;53.50;;;;;;5060604;28;20419;-70
2021/08/28 06:03:25;;;;;;;21.45;16.67;;;13.70;54.30;;;;;;5081389;28;20127;-70
2021/08/28 06:05:53;;;;;;;22.45;15.68;;;13.70;51.90;;;;;;5079555;28;20056;-70
2021/08/28 06:08:21;;;;;;;21.02;15.80;;;13.80;52.70;;;;;;5081449;28;20048;-71
2021/08/28 06:10:49;;;;;;;20.77;16.13;;;13.80;51.90;;;;;;5060440;28;20067;-70
2021/08/28 06:13:17;;;;;;;22.73;15.95;;;13.80;51.00;;;;;;5080518;28;20270;-70
2021/08/28 06:15:47;;;;;;;20.25;14.80;;;13.90;49.60;;;;;;5082533;28;20407;-70
2021/08/28 06:18:15;;;;;;;19.73;14.60;;;13.80;48.80;;;;;;5077854;28;20079;-70
2021/08/28 06:20:43;;;;;;;19.33;15.00;;;13.90;50.80;;;;;;5073924;28;20502;-69
2021/08/28 06:23:11;;;;;;;17.55;13.95;;;14.00;51.40;;;;;;5083920;28;20071;-70
2021/08/28 06:25:39;;;;;;;18.33;14.30;;;14.00;48.90;;;;;;5077518;28;20052;-70
2021/08/28 06:28:07;;;;;;;20.35;14.48;;;14.00;51.20;;;;;;5081337;28;20166;-69
2021/08/28 06:30:35;;;;;;;17.55;13.93;;;14.00;48.80;;;;;;5075995;28;20067;-70
2021/08/28 06:33:05;;;;;;;16.70;13.57;;;14.20;46.50;;;;;;5079516;28;20063;-70
2021/08/28 06:35:32;;;;;;;18.83;13.35;;;14.20;44.70;;;;;;5081778;28;20097;-70
2021/08/28 06:38:03;;;;;;;16.40;13.38;;;14.20;46.60;;;;;;5078922;28;20052;-70
2021/08/28 06:40:31;;;;;;;20.25;13.40;;;14.20;46.10;;;;;;5078296;28;20495;-69
2021/08/28 06:42:59;;;;;;;19.67;13.57;;;14.30;44.50;;;;;;5083123;28;20495;-69
2021/08/28 06:45:27;;;;;;;15.95;12.40;;;14.20;43.70;;;;;;5076302;28;20104;-69
2021/08/28 06:47:55;;;;;;;19.40;13.07;;;14.10;45.20;;;;;;5078047;28;20053;-70
2021/08/28 06:50:24;;;;;;;16.80;12.98;;;14.10;47.30;;;;;;5077465;28;20521;-71
2021/08/28 06:52:53;;;;;;;16.67;12.48;;;14.00;45.10;;;;;;5078074;28;20830;-69
2021/08/28 06:55:21;;;;;;;17.40;13.45;;;14.20;45.70;;;;;;5082478;28;20074;-70
2021/08/28 06:57:49;;;;;;;20.88;13.70;;;14.10;45.60;;;;;;5082061;28;20109;-69
2021/08/28 07:00:17;;;;;;;14.93;12.48;;;14.30;46.30;;;;;;5079254;28;20050;-70
2021/08/28 07:02:45;;;;;;;16.30;12.90;;;14.20;44.30;;;;;;5076807;28;20052;-70
2021/08/28 07:05:13;;;;;;;15.88;12.32;;;14.30;45.40;;;;;;5076755;28;20105;-69
2021/08/28 07:07:43;;;;;;;15.63;11.43;;;14.40;44.60;;;;;;5081478;28;20032;-67
2021/08/28 07:10:12;;;;;;;16.67;11.93;;;14.40;44.00;;;;;;5072287;28;20098;-70
2021/08/28 07:12:40;;;;;;;16.70;12.63;;;14.30;44.40;;;;;;5077476;28;20082;-70
2021/08/28 07:15:09;;;;;;;13.25;11.52;;;14.30;42.30;;;;;;5079058;28;20040;-70
2021/08/28 07:17:37;;;;;;;14.07;11.95;;;14.40;43.80;;;;;;5079422;28;20048;-70
2021/08/28 07:20:06;;;;;;;15.02;11.85;;;14.50;41.10;;;;;;5073644;28;20577;-69
2021/08/28 07:22:34;;;;;;;16.20;11.43;;;14.50;41.00;;;;;;5085232;28;20078;-69
2021/08/28 07:25:05;;;;;;;13.95;11.20;;;14.40;40.90;;;;;;5082759;28;20078;-70
2021/08/28 07:27:34;;;;;;;10.27;8.57;;;14.50;41.00;;;;;;5075791;28;20052;-69
2021/08/28 07:30:02;;;;;;;10.88;7.80;;;14.50;37.00;;;;;;5073862;28;20121;-69
2021/08/28 07:32:30;;;;;;;9.57;7.55;;;14.50;34.60;;;;;;5080189;28;20460;-70
2021/08/28 07:34:58;;;;;;;8.05;6.70;;;14.50;32.40;;;;;;5078016;28;20495;-70
2021/08/28 07:37:26;;;;;;;9.57;7.60;;;14.60;32.50;;;;;;5067561;28;20036;-70
2021/08/28 07:39:54;;;;;;;7.38;6.00;;;14.60;31.30;;;;;;5071285;28;20052;-70
2021/08/28 07:42:23;;;;;;;7.25;5.93;;;14.50;28.70;;;;;;5078572;28;20051;-69
2021/08/28 07:44:51;;;;;;;6.07;5.47;;;14.60;28.40;;;;;;5082922;28;20067;-70
2021/08/28 07:47:19;;;;;;;6.32;4.70;;;14.60;27.00;;;;;;5081003;28;20044;-70
2021/08/28 07:49:47;;;;;;;7.85;4.95;;;14.80;25.30;;;;;;5075745;28;20052;-70
2021/08/28 07:52:18;;;;;;;5.60;4.95;;;14.80;22.30;;;;;;5078512;28;20047;-70
2021/08/28 07:54:46;;;;;;;4.85;4.35;;;15.20;22.30;;;;;;5079350;28;20901;-70
2021/08/28 07:57:14;;;;;;;6.40;4.65;;;15.60;18.90;;;;;;5084154;28;20407;-70
2021/08/28 07:59:43;;;;;;;5.30;4.78;;;15.60;16.30;;;;;;5074547;28;20155;-70
2021/08/28 08:02:11;;;;;;;5.70;4.18;;;15.60;16.40;;;;;;5081881;28;20044;-70
2021/08/28 08:04:43;;;;;;;4.90;4.40;;;15.40;17.10;;;;;;5075249;28;20059;-69
2021/08/28 08:07:11;;;;;;;5.07;4.57;;;15.20;17.30;;;;;;5081080;28;20056;-69
2021/08/28 08:09:39;;;;;;;5.63;4.35;;;15.00;18.50;;;;;;5070273;28;20052;-69
2021/08/28 08:12:08;;;;;;;5.80;4.60;;;15.00;17.90;;;;;;5082496;28;20056;-69
2021/08/28 08:14:36;;;;;;;6.82;4.72;;;15.00;18.40;;;;;;5077947;28;20052;-70
2021/08/28 08:17:05;;;;;;;6.10;4.00;;;15.10;17.50;;;;;;5085822;28;20071;-69
2021/08/28 08:19:33;;;;;;;4.30;3.90;;;15.00;17.30;;;;;;5080372;28;20058;-69
2021/08/28 08:22:01;;;;;;;5.93;4.20;;;15.00;18.50;;;;;;5076367;28;20147;-70
2021/08/28 08:24:29;;;;;;;5.63;4.20;;;15.10;18.10;;;;;;5079159;28;20055;-70
2021/08/28 08:26:58;;;;;;;4.28;3.55;;;15.20;16.90;;;;;;5084107;28;20057;-69
2021/08/28 08:29:26;;;;;;;4.82;3.92;;;15.20;17.50;;;;;;5075504;28;20043;-68
2021/08/28 08:31:54;;;;;;;5.30;3.47;;;15.20;16.90;;;;;;5082464;28;20082;-70
2021/08/28 08:34:24;;;;;;;3.55;3.13;;;15.20;16.00;;;;;;5085193;28;20047;-70
2021/08/28 08:36:52;;;;;;;4.15;3.47;;;15.40;14.60;;;;;;5086710;28;20126;-70
2021/08/28 08:39:20;;;;;;;3.70;2.97;;;15.30;13.80;;;;;;5076496;28;20044;-70
2021/08/28 08:41:50;;;;;;;3.28;2.83;;;15.10;15.50;;;;;;5079061;28;20885;-69
2021/08/28 08:44:18;;;;;;;2.92;2.63;;;15.20;14.60;;;;;;5080219;28;20070;-69
2021/08/28 08:46:47;;;;;;;3.67;2.78;;;15.30;12.80;;;;;;5045448;28;20590;-69
2021/08/28 08:49:17;;;;;;;3.08;2.70;;;15.30;13.10;;;;;;5077861;28;20052;-69
2021/08/28 08:51:47;;;;;;;3.17;2.88;;;15.30;13.70;;;;;;5084060;28;20071;-69
2021/08/28 08:54:15;;;;;;;3.40;2.95;;;15.20;11.90;;;;;;5082582;28;20037;-69
2021/08/28 08:56:43;;;;;;;3.58;2.58;;;15.20;12.80;;;;;;5082491;28;20109;-70
2021/08/28 08:59:11;;;;;;;2.92;2.10;;;15.30;13.90;;;;;;5073986;28;20117;-70
2021/08/28 09:01:39;;;;;;;2.80;2.10;;;15.40;11.50;;;;;;5081282;28;20058;-70
2021/08/28 09:04:08;;;;;;;2.30;2.10;;;15.30;11.10;;;;;;5081826;28;20074;-70
2021/08/28 09:06:36;;;;;;;2.22;2.03;;;15.40;11.50;;;;;;5079076;28;20392;-70
2021/08/28 09:09:05;;;;;;;3.75;2.58;;;15.30;12.10;;;;;;5079778;28;20048;-70
2021/08/28 09:11:33;;;;;;;3.25;2.13;;;15.30;13.30;;;;;;5065470;28;20040;-70
2021/08/28 09:14:18;;;;;;;2.28;1.90;;;15.20;11.40;;;;;;5084075;28;20062;-70
2021/08/28 09:16:48;;;;;;;2.47;2.28;;;15.10;12.70;;;;;;5080675;28;20499;-70
2021/08/28 09:19:37;;;;;;;3.25;2.60;;;14.90;16.00;;;;;;5074663;28;20100;-70
2021/08/28 09:22:08;;;;;;;2.63;2.35;;;14.90;16.10;;;;;;5083205;28;20052;-69
2021/08/28 09:24:45;;;;;;;4.95;2.58;;;15.00;17.40;;;;;;5076585;28;20049;-70
2021/08/28 09:27:31;;;;;;;2.85;2.25;;;15.10;18.50;;;;;;5082363;28;20463;-70
2021/08/28 09:29:59;;;;;;;2.30;2.10;;;15.00;17.00;;;;;;5074708;28;20098;-69
2021/08/28 09:32:27;;;;;;;3.20;2.90;;;14.90;17.90;;;;;;5082521;28;20048;-69
2021/08/28 09:35:08;;;;;;;4.82;2.63;;;14.80;18.90;;;;;;5082012;28;20056;-70
2021/08/28 09:37:36;;;;;;;3.53;2.97;;;14.80;20.70;;;;;;5081629;28;20052;-69
2021/08/28 09:40:06;;;;;;;4.10;2.88;;;14.70;19.10;;;;;;5076931;28;20571;-70
2021/08/28 09:42:35;;;;;;;3.38;3.08;;;14.90;23.50;;;;;;5083132;28;20732;-69
2021/08/28 09:45:10;;;;;;;3.60;3.30;;;14.80;23.50;;;;;;5083624;28;20418;-70
2021/08/28 09:47:42;;;;;;;3.40;3.10;;;14.80;25.40;;;;;;5080438;28;20040;-69
2021/08/28 09:50:11;;;;;;;3.30;3.00;;;14.80;24.60;;;;;;5077755;28;20051;-69
2021/08/28 09:52:43;;;;;;;4.40;3.03;;;14.90;24.20;;;;;;5077751;28;20052;-69
2021/08/28 09:55:13;;;;;;;4.43;3.33;;;14.70;26.10;;;;;;5080896;28;20563;-69
2021/08/28 09:57:41;;;;;;;3.50;3.20;;;14.60;25.20;;;;;;5079697;28;20053;-69
2021/08/28 10:00:10;;;;;;;3.38;2.78;;;14.60;26.70;;;;;;5078597;28;20086;-69
2021/08/28 10:02:38;;;;;;;3.28;2.97;;;14.50;25.20;;;;;;5081621;28;20049;-70
2021/08/28 10:05:20;;;;;;;3.15;2.65;;;14.40;27.80;;;;;;5081112;28;20055;-70
2021/08/28 10:07:49;;;;;;;4.40;3.38;;;14.50;28.40;;;;;;5079389;28;20080;-70
2021/08/28 10:10:19;;;;;;;7.15;3.28;;;14.40;28.00;;;;;;5077810;28;20097;-70
2021/08/28 10:12:47;;;;;;;4.20;3.30;;;14.50;29.80;;;;;;5082183;28;20071;-69
2021/08/28 10:15:17;;;;;;;3.28;2.97;;;14.50;26.80;;;;;;5078730;28;20050;-70
2021/08/28 10:17:45;;;;;;;3.78;3.00;;;14.60;30.30;;;;;;5075732;28;20052;-70
2021/08/28 10:20:15;;;;;;;3.30;2.83;;;14.60;28.80;;;;;;5078434;28;20529;-70
2021/08/28 10:22:43;;;;;;;4.20;2.83;;;14.50;29.30;;;;;;5080990;28;20055;-70
2021/08/28 10:25:13;;;;;;;3.50;3.20;;;14.60;28.00;;;;;;5079770;28;20504;-69
2021/08/28 10:27:43;;;;;;;2.42;2.20;;;14.80;28.90;;;;;;5082081;28;20049;-69
2021/08/28 10:30:13;;;;;;;3.05;2.58;;;14.90;25.40;;;;;;5075807;28;20100;-70
2021/08/28 10:32:42;;;;;;;3.75;2.53;;;15.00;27.10;;;;;;5077549;28;20097;-69
2021/08/28 10:35:11;;;;;;;2.55;2.35;;;15.10;27.00;;;;;;5076656;28;20482;-70
2021/08/28 10:37:39;;;;;;;2.80;2.25;;;15.10;28.40;;;;;;5076612;28;20044;-69
2021/08/28 10:40:11;;;;;;;2.53;2.03;;;15.10;23.90;;;;;;5077033;28;20082;-69
2021/08/28 10:42:41;;;;;;;2.88;2.03;;;15.20;25.60;;;;;;5079678;28;20094;-70
2021/08/28 10:45:11;;;;;;;2.30;2.10;;;15.30;18.70;;;;;;5082695;28;20097;-70
2021/08/28 10:47:39;;;;;;;1.92;1.77;;;15.50;19.50;;;;;;5079050;28;20044;-69
2021/08/28 10:50:10;;;;;;;1.67;1.30;;;15.50;16.40;;;;;;5079569;28;20056;-69
2021/08/28 10:52:39;;;;;;;1.70;1.60;;;15.90;15.00;;;;;;5079878;28;20129;-69
2021/08/28 10:55:11;;;;;;;1.85;1.48;;;15.80;12.70;;;;;;5082766;28;20052;-70
2021/08/28 10:57:41;;;;;;;2.08;1.60;;;15.90;11.90;;;;;;5080857;28;20044;-68
2021/08/28 11:00:12;;;;;;;2.35;1.20;;;15.90;8.90;;;;;;5072410;28;20048;-69
2021/08/28 11:02:53;;;;;;;2.10;1.35;;;16.10;7.30;;;;;;5060490;28;20551;-70
2021/08/28 11:05:23;;;;;;;1.40;1.30;;;16.10;8.30;;;;;;5080726;28;20177;-69
2021/08/28 11:07:52;;;;;;;2.25;1.23;;;16.10;4.50;;;;;;5076860;28;20047;-70
2021/08/28 11:10:22;;;;;;;1.80;1.10;;;16.10;6.00;;;;;;5076882;28;20067;-69
2021/08/28 11:12:59;;;;;;;1.25;1.15;;;16.20;6.10;;;;;;5078828;28;20518;-70
2021/08/28 11:15:43;;;;;;;;;;;16.30;6.10;;;;;;5080465;28;20055;-70
2021/08/28 11:18:16;;;;;;;1.35;1.20;;;16.40;5.20;;;;;;5075587;28;19928;-70
2021/08/28 11:20:46;;;;;;;1.55;1.25;;;16.10;4.40;;;;;;5072674;28;20044;-69
2021/08/28 11:23:16;;;;;;;1.77;1.30;;;16.70;4.50;;;;;;5080804;28;20131;-70
2021/08/28 11:25:46;;;;;;;1.23;1.00;;;17.00;2.70;;;;;;5078303;28;20109;-70
2021/08/28 11:28:15;;;;;;;1.20;1.00;;;17.30;1.50;;;;;;5058762;28;20392;-70
2021/08/28 11:30:55;;;;;;;1.00;0.88;;;17.20;3.10;;;;;;5071880;28;20052;-70
2021/08/28 11:33:26;;;;;;;0.85;0.85;;;16.90;1.00;;;;;;5083120;28;20070;-70
2021/08/28 11:35:57;;;;;;;0.85;0.80;;;16.90;1.00;;;;;;5060972;28;20056;-70
2021/08/28 11:38:39;;;;;;;9.18;1.00;;;17.10;1.00;;;;;;5041750;28;21201;-70
2021/08/28 11:41:20;;;;;;;0.90;0.80;;;17.00;1.00;;;;;;5071180;28;20580;-70
2021/08/28 11:43:50;;;;;;;1.33;0.80;;;16.60;1.00;;;;;;5079493;28;20048;-70
2021/08/28 11:46:23;;;;;;;2.05;1.20;;;16.70;1.00;;;;;;5080833;28;20047;-70
2021/08/28 11:48:51;;;;;;;2.85;2.05;;;17.10;1.00;;;;;;5059044;28;20117;-71
2021/08/28 11:51:21;;;;;;;0.88;0.80;;;17.00;1.00;;;;;;5078799;28;20048;-69
2021/08/28 11:53:52;;;;;;;1.13;1.02;;;17.00;1.00;;;;;;5077588;28;20044;-69
2021/08/28 11:56:21;;;;;;;4.07;2.40;;;17.00;1.00;;;;;;5078513;28;20505;-70
2021/08/28 11:58:57;;;;;;;1.48;1.30;;;16.90;1.00;;;;;;5080113;28;20121;-69
2021/08/28 12:01:32;;;;;;;1.33;1.02;;;17.20;1.00;;;;;;5075080;28;20105;-69
2021/08/28 12:04:02;;;;;;;2.47;1.25;;;17.40;1.00;;;;;;5079834;28;20052;-70
2021/08/28 12:06:32;;;;;;;1.75;1.25;;;17.20;1.00;;;;;;5077307;28;20482;-70
2021/08/28 12:09:00;;;;;;;10.38;4.78;;;17.40;1.00;;;;;;5076680;28;20049;-70
2021/08/28 12:11:29;;;;;;;1.73;1.10;;;17.30;1.00;;;;;;5074149;28;20113;-70
2021/08/28 12:14:04;;;;;;;1.67;1.00;;;17.60;1.00;;;;;;5078933;28;20048;-70
2021/08/28 12:16:35;;;;;;;1.10;1.00;;;17.40;1.00;;;;;;5082065;28;20052;-70
2021/08/28 12:19:06;;;;;;;1.00;0.80;;;16.70;1.00;;;;;;5076081;28;20147;-70
2021/08/28 12:21:36;;;;;;;0.90;0.80;;;17.00;1.00;;;;;;5077233;28;20044;-70
2021/08/28 12:24:15;;;;;;;1.20;0.70;;;17.30;1.00;;;;;;5080364;28;20048;-70
2021/08/28 12:26:47;;;;;;;1.58;0.90;;;17.70;1.00;;;;;;5079627;28;20047;-70
2021/08/28 12:29:22;;;;;;;0.90;0.70;;;17.70;1.00;;;;;;5074677;28;20072;-70
2021/08/28 12:31:55;;;;;;;0.60;0.50;;;17.50;1.00;;;;;;5077193;28;20052;-70
2021/08/28 12:34:25;;;;;;;1.35;0.50;;;17.60;1.00;;;;;;5082394;28;21043;-70
2021/08/28 12:36:53;;;;;;;0.70;0.60;;;17.70;1.00;;;;;;5079503;28;20097;-70
2021/08/28 12:39:21;;;;;;;0.93;0.50;;;17.90;1.00;;;;;;5076938;28;20097;-70
2021/08/28 12:41:49;;;;;;;2.70;0.60;;;17.60;1.00;;;;;;5058686;28;20057;-70
2021/08/28 12:44:18;;;;;;;1.25;0.40;;;17.50;1.00;;;;;;5078810;28;20071;-70
2021/08/28 12:46:48;;;;;;;1.17;0.43;;;17.80;1.00;;;;;;5079812;28;20052;-70
2021/08/28 12:49:20;;;;;;;0.43;0.40;;;17.90;1.00;;;;;;5073254;28;20044;-70
2021/08/28 12:51:57;;;;;;;0.50;0.30;;;17.90;1.00;;;;;;5075720;28;20102;-69
2021/08/28 12:54:28;;;;;;;1.35;0.40;;;17.60;1.00;;;;;;5073877;28;21156;-69